createdAt,value
2022-10-03T00:02:24.475Z,2.10
2022-10-03T00:05:23.772Z,2.10
2022-10-03T00:08:14.289Z,2.38
2022-10-03T00:11:25.612Z,2.40
2022-10-03T00:14:14.312Z,1.80
2022-10-03T00:17:26.938Z,2.25
2022-10-03T00:20:02.536Z,2.45
2022-10-03T00:22:43.887Z,3.15
2022-10-03T00:25:50.075Z,2.67
2022-10-03T00:29:16.838Z,2.40
2022-10-03T00:32:24.732Z,2.60
2022-10-03T00:34:54.486Z,2.40
2022-10-03T00:37:44.784Z,2.75
2022-10-03T00:40:47.061Z,2.78
2022-10-03T00:43:41.549Z,2.78
2022-10-03T00:46:30.379Z,2.35
2022-10-03T00:49:37.804Z,2.50
2022-10-03T00:52:33.836Z,2.70
2022-10-03T00:55:19.257Z,3.10
2022-10-03T00:58:26.120Z,2.45
2022-10-03T01:01:05.365Z,3.08
2022-10-03T01:03:58.954Z,3.08
2022-10-03T01:06:36.789Z,2.55
2022-10-03T01:09:31.140Z,3.00
2022-10-03T01:12:21.251Z,2.53
2022-10-03T01:15:24.683Z,2.65
2022-10-03T01:18:13.405Z,2.20
2022-10-03T01:21:12.449Z,1.95
2022-10-03T01:24:04.987Z,1.45
2022-10-03T01:26:43.866Z,1.50
2022-10-03T01:29:41.711Z,1.60
2022-10-03T01:32:25.988Z,1.30
2022-10-03T01:35:11.075Z,2.05
2022-10-03T01:38:08.918Z,1.20
2022-10-03T01:41:17.559Z,1.20
2022-10-03T01:44:13.359Z,1.30
2022-10-03T01:46:48.414Z,1.33
2022-10-03T01:49:38.486Z,1.65
2022-10-03T01:52:21.318Z,1.30
2022-10-03T01:55:15.883Z,1.20
2022-10-03T01:58:17.555Z,1.48
2022-10-03T02:01:00.654Z,1.15
2022-10-03T02:03:52.201Z,1.80
2022-10-03T02:07:05.791Z,1.13
2022-10-03T02:10:09.758Z,1.52
2022-10-03T02:13:06.095Z,1.30
2022-10-03T02:16:06.099Z,1.20
2022-10-03T02:19:09.297Z,1.42
2022-10-03T02:21:54.589Z,1.23
2022-10-03T02:25:06.155Z,1.38
2022-10-03T02:28:35.182Z,1.25
2022-10-03T02:31:23.469Z,1.33
2022-10-03T02:34:16.054Z,1.10
2022-10-03T02:39:23.192Z,1.15
2022-10-03T02:42:25.214Z,1.45
2022-10-03T02:45:13.238Z,1.08
2022-10-03T02:48:33.575Z,1.77
2022-10-03T02:52:08.633Z,0.80
2022-10-03T02:54:57.231Z,1.10
2022-10-03T02:57:51.883Z,1.33
2022-10-03T03:00:31.659Z,1.33
2022-10-03T03:03:34.976Z,1.40
2022-10-03T03:06:33.718Z,1.20
2022-10-03T03:09:18.896Z,1.20
2022-10-03T03:12:14.991Z,1.00
2022-10-03T03:14:54.328Z,1.10
2022-10-03T03:17:36.803Z,1.08
2022-10-03T03:22:56.024Z,1.40
2022-10-03T03:26:16.011Z,1.80
2022-10-03T03:28:57.991Z,1.27
2022-10-03T03:31:56.551Z,1.52
2022-10-03T03:34:44.219Z,1.20
2022-10-03T03:38:01.283Z,1.10
2022-10-03T03:40:59.090Z,1.45
2022-10-03T03:43:55.643Z,1.27
2022-10-03T03:47:09.328Z,1.10
2022-10-03T03:50:07.177Z,1.48
2022-10-03T03:53:18.218Z,1.67
2022-10-03T03:56:06.310Z,1.40
2022-10-03T03:59:03.337Z,1.30
2022-10-03T04:01:38.840Z,1.45
2022-10-03T04:04:23.308Z,1.50
2022-10-03T04:07:27.867Z,1.77
2022-10-03T04:10:56.687Z,1.30
2022-10-03T04:13:37.117Z,1.40
2022-10-03T04:16:54.883Z,1.85
2022-10-03T04:20:11.503Z,1.38
2022-10-03T04:23:02.136Z,1.40
2022-10-03T04:25:58.222Z,1.25
2022-10-03T04:28:48.427Z,1.40
2022-10-03T04:32:01.836Z,1.08
2022-10-03T04:35:02.557Z,1.35
2022-10-03T04:37:52.713Z,1.13
2022-10-03T04:40:27.454Z,1.20
2022-10-03T04:43:40.500Z,1.40
2022-10-03T04:46:53.048Z,1.60
2022-10-03T04:49:46.283Z,2.25
2022-10-03T04:52:42.037Z,1.25
2022-10-03T04:55:47.938Z,1.52
2022-10-03T04:59:27.557Z,1.25
2022-10-03T05:02:02.479Z,1.55
2022-10-03T05:04:31.152Z,1.45
2022-10-03T05:07:42.111Z,1.58
2022-10-03T05:10:40.225Z,1.60
2022-10-03T05:13:51.570Z,2.25
2022-10-03T05:16:32.058Z,2.05
2022-10-03T05:19:41.715Z,2.53
2022-10-03T05:22:23.922Z,2.67
2022-10-03T05:25:18.771Z,1.83
2022-10-03T05:28:11.600Z,1.80
2022-10-03T05:31:29.291Z,1.42
2022-10-03T05:34:26.576Z,1.52
2022-10-03T05:37:25.327Z,1.52
2022-10-03T05:40:00.019Z,1.63
2022-10-03T05:42:51.403Z,1.77
2022-10-03T05:45:52.367Z,1.42
2022-10-03T05:49:10.727Z,1.20
2022-10-03T05:52:16.445Z,1.45
2022-10-03T05:55:19.123Z,1.08
2022-10-03T05:58:23.958Z,1.67
2022-10-03T06:01:10.085Z,1.00
2022-10-03T06:04:22.770Z,1.10
2022-10-03T06:07:20.802Z,1.20
2022-10-03T06:09:53.720Z,1.52
2022-10-03T06:12:32.071Z,1.58
2022-10-03T06:15:27.076Z,1.50
2022-10-03T06:18:16.663Z,1.50
2022-10-03T06:21:32.889Z,1.45
2022-10-03T06:24:39.512Z,1.38
2022-10-03T06:27:38.850Z,1.30
2022-10-03T06:30:37.240Z,1.20
2022-10-03T06:33:26.218Z,1.25
2022-10-03T06:36:08.333Z,1.30
2022-10-03T06:39:09.601Z,1.50
2022-10-03T06:42:07.453Z,1.30
2022-10-03T06:45:11.544Z,1.38
2022-10-03T06:48:24.663Z,1.48
2022-10-03T06:51:30.384Z,1.13
2022-10-03T06:54:30.853Z,1.13
2022-10-03T06:57:04.663Z,1.13
2022-10-03T06:59:58.617Z,1.08
2022-10-03T07:02:49.058Z,1.00
2022-10-03T07:05:46.518Z,1.20
2022-10-03T07:09:00.726Z,1.38
2022-10-03T07:12:21.164Z,1.40
2022-10-03T07:15:50.088Z,1.30
2022-10-03T07:18:35.637Z,1.20
2022-10-03T07:21:33.750Z,1.10
2022-10-03T07:24:34.627Z,1.30
2022-10-03T07:27:40.732Z,1.40
2022-10-03T07:30:27.007Z,1.40
2022-10-03T07:33:06.147Z,1.60
2022-10-03T07:36:09.008Z,1.70
2022-10-03T07:39:23.299Z,1.40
2022-10-03T07:42:17.462Z,1.73
2022-10-03T07:45:23.301Z,1.40
2022-10-03T07:48:33.990Z,1.88
2022-10-03T07:51:10.878Z,2.72
2022-10-03T07:54:24.694Z,2.00
2022-10-03T07:57:21.952Z,2.00
2022-10-03T08:00:13.671Z,2.10
2022-10-03T08:03:14.974Z,2.33
2022-10-03T08:06:15.975Z,2.33
2022-10-03T08:09:00.784Z,2.13
2022-10-03T08:11:46.488Z,1.90
2022-10-03T08:15:05.349Z,1.98
2022-10-03T08:17:47.621Z,2.15
2022-10-03T08:23:29.798Z,2.60
2022-10-03T08:26:34.068Z,1.95
2022-10-03T08:29:45.826Z,2.60
2022-10-03T08:33:19.755Z,2.33
2022-10-03T08:35:58.407Z,2.10
2022-10-03T08:38:56.677Z,2.10
2022-10-03T08:42:14.964Z,2.22
2022-10-03T08:45:27.810Z,2.30
2022-10-03T08:48:20.108Z,2.20
2022-10-03T08:51:31.622Z,2.00
2022-10-03T08:54:03.009Z,2.72
2022-10-03T09:00:41.863Z,2.50
2022-10-03T09:03:57.600Z,2.60
2022-10-03T09:07:16.143Z,2.55
2022-10-03T09:10:07.719Z,2.28
2022-10-03T09:13:20.714Z,2.35
2022-10-03T09:16:45.550Z,2.38
2022-10-03T09:20:09.300Z,2.58
2022-10-03T09:23:03.765Z,2.42
2022-10-03T09:26:27.828Z,2.90
2022-10-03T09:29:35.234Z,2.83
2022-10-03T09:32:30.029Z,2.53
2022-10-03T09:35:34.826Z,2.35
2022-10-03T09:38:23.166Z,2.50
2022-10-03T09:41:32.536Z,2.50
2022-10-03T09:44:40.089Z,2.50
2022-10-03T09:47:49.397Z,2.53
2022-10-03T09:50:52.048Z,2.63
2022-10-03T09:53:44.692Z,2.08
2022-10-03T09:56:40.180Z,2.40
2022-10-03T10:00:08.687Z,2.38
2022-10-03T10:03:21.890Z,2.45
2022-10-03T10:06:01.318Z,2.67
2022-10-03T10:09:10.111Z,2.33
2022-10-03T10:12:23.886Z,2.58
2022-10-03T10:15:26.630Z,2.75
2022-10-03T10:18:15.863Z,2.13
2022-10-03T10:21:06.638Z,3.05
2022-10-03T10:24:21.796Z,2.33
2022-10-03T10:27:29.940Z,2.13
2022-10-03T10:30:39.178Z,2.38
2022-10-03T10:33:24.541Z,2.35
2022-10-03T10:36:38.902Z,2.28
2022-10-03T10:39:41.855Z,2.33
2022-10-03T10:45:53.803Z,2.30
2022-10-03T10:48:35.702Z,2.10
2022-10-03T10:51:53.021Z,1.85
2022-10-03T10:55:06.969Z,1.83
2022-10-03T10:58:17.912Z,1.95
2022-10-03T11:01:09.324Z,2.20
2022-10-03T11:04:20.184Z,1.90
2022-10-03T11:07:21.700Z,1.63
2022-10-03T11:10:01.766Z,1.50
2022-10-03T11:12:48.059Z,1.65
2022-10-03T11:16:04.758Z,2.03
2022-10-03T11:19:03.929Z,1.52
2022-10-03T11:22:00.138Z,1.95
2022-10-03T11:25:07.850Z,1.80
2022-10-03T11:28:33.034Z,1.55
2022-10-03T11:32:15.058Z,1.40
2022-10-03T11:35:25.890Z,1.52
2022-10-03T11:38:14.184Z,1.40
2022-10-03T11:41:01.144Z,1.70
2022-10-03T11:44:11.648Z,1.90
2022-10-03T11:47:18.684Z,1.70
2022-10-03T11:50:14.478Z,1.50
2022-10-03T11:52:59.771Z,1.38
2022-10-03T11:55:42.208Z,1.27
2022-10-03T11:58:32.318Z,1.55
2022-10-03T12:01:51.329Z,1.50
2022-10-03T12:05:04.073Z,1.30
2022-10-03T12:07:58.440Z,1.55
2022-10-03T12:10:46.029Z,1.50
2022-10-03T12:13:21.936Z,1.83
2022-10-03T12:15:54.475Z,1.40
2022-10-03T12:18:43.055Z,1.60
2022-10-03T12:21:54.311Z,1.50
2022-10-03T12:24:33.177Z,1.70
2022-10-03T12:27:34.308Z,1.20
2022-10-03T12:30:14.499Z,1.42
2022-10-03T12:33:28.758Z,1.30
2022-10-03T12:36:23.364Z,1.30
2022-10-03T12:39:45.467Z,1.40
2022-10-03T12:42:41.527Z,1.40
2022-10-03T12:45:48.316Z,1.73
2022-10-03T12:48:24.312Z,1.50
2022-10-03T12:51:23.949Z,1.70
2022-10-03T12:54:27.586Z,1.23
2022-10-03T12:57:45.145Z,1.65
2022-10-03T13:00:24.349Z,1.55
2022-10-03T13:03:09.396Z,1.80
2022-10-03T13:06:02.816Z,1.88
2022-10-03T13:08:56.288Z,1.85
2022-10-03T13:11:57.205Z,1.90
2022-10-03T13:14:50.177Z,1.98
2022-10-03T13:17:51.741Z,1.90
2022-10-03T13:20:37.188Z,1.60
2022-10-03T13:23:42.894Z,1.95
2022-10-03T13:26:24.584Z,1.92
2022-10-03T13:32:32.983Z,1.98
2022-10-03T13:35:33.713Z,2.78
2022-10-03T13:38:13.821Z,1.95
2022-10-03T13:40:56.737Z,1.70
2022-10-03T13:43:36.335Z,1.85
2022-10-03T13:46:13.317Z,2.00
2022-10-03T13:48:47.643Z,1.70
2022-10-03T13:51:50.566Z,1.60
2022-10-03T13:55:11.635Z,2.20
2022-10-03T13:58:14.333Z,1.80
2022-10-03T14:01:13.952Z,1.70
2022-10-03T14:04:27.274Z,1.52
2022-10-03T14:07:29.532Z,2.08
2022-10-03T14:11:04.520Z,1.73
2022-10-03T14:13:36.653Z,2.10
2022-10-03T14:16:30.408Z,2.28
2022-10-03T14:19:17.128Z,2.40
2022-10-03T14:22:02.768Z,2.63
2022-10-03T14:25:05.429Z,2.90
2022-10-03T14:30:18.620Z,2.67
2022-10-03T14:33:31.595Z,2.60
2022-10-03T14:36:44.133Z,2.70
2022-10-03T14:39:41.262Z,3.30
2022-10-03T14:42:44.784Z,3.30
2022-10-03T14:45:21.634Z,3.70
2022-10-03T14:47:53.917Z,3.25
2022-10-03T14:50:30.913Z,3.55
2022-10-03T14:53:34.030Z,3.35
2022-10-03T14:56:12.868Z,4.10
2022-10-03T14:58:53.953Z,3.67
2022-10-03T15:01:29.026Z,3.33
2022-10-03T15:04:32.405Z,3.60
2022-10-03T15:07:15.837Z,3.40
2022-10-03T15:09:50.420Z,3.28
2022-10-03T15:12:31.285Z,3.85
2022-10-03T15:15:07.412Z,5.18
2022-10-03T15:17:49.797Z,5.25
2022-10-03T15:22:58.617Z,4.60
2022-10-03T15:25:40.094Z,3.85
2022-10-03T15:28:21.399Z,3.77
2022-10-03T15:30:53.574Z,3.00
2022-10-03T15:36:26.956Z,3.03
2022-10-03T15:39:02.327Z,2.17
2022-10-03T15:41:50.523Z,1.88
2022-10-03T15:44:33.950Z,2.30
2022-10-03T15:47:27.325Z,2.47
2022-10-03T15:50:22.413Z,2.42
2022-10-03T15:53:35.589Z,2.67
2022-10-03T15:56:24.138Z,2.90
2022-10-03T15:59:01.449Z,2.85
2022-10-03T16:01:40.046Z,3.30
2022-10-03T16:04:35.607Z,2.83
2022-10-03T16:07:55.078Z,3.40
2022-10-03T16:10:30.231Z,3.50
2022-10-03T16:13:10.421Z,2.80
2022-10-03T16:16:23.904Z,2.63
2022-10-03T16:19:22.436Z,2.75
2022-10-03T16:22:13.487Z,3.08
2022-10-03T16:25:05.756Z,3.40
2022-10-03T16:27:55.826Z,3.08
2022-10-03T16:30:30.059Z,2.35
2022-10-03T16:33:16.362Z,2.53
2022-10-03T16:36:16.790Z,2.90
2022-10-03T16:38:54.286Z,3.40
2022-10-03T16:41:31.977Z,3.75
2022-10-03T16:44:23.275Z,3.53
2022-10-03T16:46:59.814Z,3.45
2022-10-03T16:49:53.532Z,3.75
2022-10-03T16:52:35.727Z,3.97
2022-10-03T16:55:26.518Z,4.28
2022-10-03T16:58:00.088Z,3.10
2022-10-03T17:01:09.029Z,3.53
2022-10-03T17:06:55.833Z,3.45
2022-10-03T17:09:37.279Z,3.60
2022-10-03T17:12:13.681Z,2.95
2022-10-03T17:14:44.670Z,3.10
2022-10-03T17:17:31.801Z,3.50
2022-10-03T17:20:14.785Z,3.10
2022-10-03T17:22:45.870Z,3.17
2022-10-03T17:25:19.104Z,3.28
2022-10-03T17:27:52.539Z,4.18
2022-10-03T17:30:43.571Z,4.30
2022-10-03T17:33:25.979Z,4.25
2022-10-03T17:39:10.556Z,4.00
2022-10-03T17:42:01.878Z,4.07
2022-10-03T17:44:52.808Z,3.95
2022-10-03T17:47:57.063Z,3.67
2022-10-03T17:50:32.047Z,4.35
2022-10-03T17:53:00.733Z,4.10
2022-10-03T17:55:41.879Z,4.00
2022-10-03T17:58:19.727Z,4.15
2022-10-03T18:00:46.823Z,3.63
2022-10-03T18:03:30.934Z,3.90
2022-10-03T18:06:31.874Z,5.05
2022-10-03T18:09:07.437Z,4.57
2022-10-03T18:11:38.010Z,4.50
2022-10-03T18:14:20.738Z,4.57
2022-10-03T18:17:09.300Z,4.93
2022-10-03T18:19:51.386Z,3.70
2022-10-03T18:22:40.869Z,3.58
2022-10-03T18:26:19.665Z,4.45
2022-10-03T18:29:23.676Z,6.22
2022-10-03T18:32:12.872Z,4.78
2022-10-03T18:34:55.578Z,4.88
2022-10-03T18:37:28.692Z,5.18
2022-10-03T18:40:48.518Z,4.25
2022-10-03T18:43:37.035Z,3.53
2022-10-03T18:46:22.787Z,4.10
2022-10-03T18:49:31.479Z,4.40
2022-10-03T18:52:24.110Z,3.92
2022-10-03T18:55:05.267Z,4.00
2022-10-03T18:57:41.350Z,4.88
2022-10-03T19:00:21.511Z,4.68
2022-10-03T19:03:20.029Z,5.30
2022-10-03T19:05:58.511Z,5.30
2022-10-03T19:08:59.363Z,5.82
2022-10-03T19:11:42.312Z,4.78
2022-10-03T19:14:29.241Z,4.18
2022-10-03T19:17:11.646Z,4.45
2022-10-03T19:20:12.231Z,4.43
2022-10-03T19:22:43.662Z,4.22
2022-10-03T19:25:23.712Z,4.38
2022-10-03T19:28:08.791Z,3.97
2022-10-03T19:30:37.353Z,5.35
2022-10-03T19:33:25.892Z,3.65
2022-10-03T19:36:03.463Z,3.90
2022-10-03T19:38:40.184Z,4.03
2022-10-03T19:41:26.513Z,3.47
2022-10-03T19:43:57.215Z,3.17
2022-10-03T19:47:05.518Z,7.13
2022-10-03T19:50:02.040Z,4.50
2022-10-03T19:52:41.848Z,5.00
2022-10-03T19:55:17.589Z,2.90
2022-10-03T19:57:58.984Z,3.22
2022-10-03T20:00:39.470Z,3.30
2022-10-03T20:03:25.446Z,3.70
2022-10-03T20:06:26.869Z,2.97
2022-10-03T20:09:08.572Z,2.42
2022-10-03T20:11:56.978Z,2.55
2022-10-03T20:14:35.978Z,2.92
2022-10-03T20:17:25.385Z,3.28
2022-10-03T20:20:01.707Z,3.10
2022-10-03T20:22:36.934Z,2.72
2022-10-03T20:25:21.641Z,2.45
2022-10-03T20:27:55.979Z,3.60
2022-10-03T20:30:46.155Z,2.92
2022-10-03T20:33:27.639Z,3.35
2022-10-03T20:36:18.056Z,3.08
2022-10-03T20:39:04.603Z,3.40
2022-10-03T20:42:05.518Z,3.35
2022-10-03T20:45:03.877Z,2.80
2022-10-03T20:48:06.359Z,3.72
2022-10-03T20:50:49.689Z,3.30
2022-10-03T20:53:25.353Z,2.90
2022-10-03T20:55:58.095Z,2.70
2022-10-03T20:58:30.355Z,2.55
2022-10-03T21:01:09.977Z,2.85
2022-10-03T21:04:24.271Z,2.47
2022-10-03T21:07:06.364Z,2.67
2022-10-03T21:09:50.613Z,2.58
2022-10-03T21:12:28.352Z,2.97
2022-10-03T21:15:17.495Z,2.45
2022-10-03T21:17:46.970Z,2.65
2022-10-03T21:20:32.253Z,2.80
2022-10-03T21:23:24.012Z,2.67
2022-10-03T21:25:58.967Z,3.50
2022-10-03T21:28:36.324Z,3.10
2022-10-03T21:31:22.149Z,3.33
2022-10-03T21:34:15.924Z,3.63
2022-10-03T21:36:56.123Z,3.00
2022-10-03T21:39:56.106Z,3.10
2022-10-03T21:42:27.614Z,3.10
2022-10-03T21:44:54.711Z,3.08
2022-10-03T21:47:46.543Z,2.88
2022-10-03T21:50:31.942Z,3.38
2022-10-03T21:53:51.797Z,3.40
2022-10-03T21:56:56.098Z,3.03
2022-10-03T21:59:57.553Z,2.53
2022-10-03T22:02:55.942Z,2.53
2022-10-03T22:05:40.669Z,2.97
2022-10-03T22:08:40.626Z,2.72
2022-10-03T22:11:14.751Z,2.58
2022-10-03T22:13:55.194Z,2.85
2022-10-03T22:16:57.085Z,2.95
2022-10-03T22:19:59.211Z,3.13
2022-10-03T22:22:36.483Z,4.03
2022-10-03T22:25:39.452Z,3.40
2022-10-03T22:29:07.284Z,3.05
2022-10-03T22:31:40.514Z,2.60
2022-10-03T22:34:13.570Z,2.55
2022-10-03T22:36:41.709Z,2.88
2022-10-03T22:39:12.814Z,3.22
2022-10-03T22:41:44.250Z,2.38
2022-10-03T22:44:15.179Z,2.60
2022-10-03T22:46:50.253Z,2.60
2022-10-03T22:49:25.744Z,2.72
2022-10-03T22:51:57.152Z,3.15
2022-10-03T22:54:35.089Z,2.63
2022-10-03T22:57:12.269Z,2.55
2022-10-03T22:59:49.793Z,2.22
2022-10-03T23:02:20.114Z,2.95
2022-10-03T23:05:01.002Z,2.42
2022-10-03T23:08:13.273Z,3.15
2022-10-03T23:10:55.027Z,2.15
2022-10-03T23:13:41.063Z,3.05
2022-10-03T23:16:28.794Z,3.28
2022-10-03T23:19:44.391Z,3.20
2022-10-03T23:22:18.358Z,2.67
2022-10-03T23:25:06.079Z,2.58
2022-10-03T23:28:19.869Z,2.13
2022-10-03T23:30:52.098Z,2.22
2022-10-03T23:36:30.397Z,2.42
2022-10-03T23:39:01.620Z,1.90
2022-10-03T23:41:34.508Z,2.13
2022-10-03T23:44:02.638Z,2.75
2022-10-03T23:46:31.840Z,2.75
2022-10-03T23:49:02.608Z,2.20
2022-10-03T23:51:35.682Z,2.25
2022-10-03T23:54:08.590Z,1.83
2022-10-03T23:56:44.552Z,2.42
2022-10-03T23:59:14.718Z,2.25
